Time;durP1;ratioP1;P1;durP2;ratioP2;P2;SDS_P1;SDS_P2;PMS_P1;PMS_P2;Temp;Humidity;BMP_temperature;BMP_pressure;BME280_temperature;BME280_humidity;BME280_pressure;Samples;Min_cycle;Max_cycle;Signal;HPM_P1;HPM_P2
2023/04/08 00:01:05;;;;;;;9.53;7.40;;;11.80;99.90;;;;;;5013284;28;20205;-65
2023/04/08 00:03:31;;;;;;;9.87;7.53;;;11.90;99.90;;;;;;5015501;28;20184;-66
2023/04/08 00:05:57;;;;;;;9.23;6.97;;;11.80;99.90;;;;;;5009987;28;20232;-66
2023/04/08 00:08:22;;;;;;;9.13;6.50;;;11.80;99.90;;;;;;5015681;28;20181;-65
2023/04/08 00:10:48;;;;;;;8.90;7.43;;;11.80;99.90;;;;;;5012048;28;20205;-65
2023/04/08 00:13:14;;;;;;;8.53;7.63;;;11.80;99.90;;;;;;5015148;28;20197;-65
2023/04/08 00:15:40;;;;;;;8.87;7.60;;;11.60;99.90;;;;;;5017360;28;20262;-65
2023/04/08 00:18:07;;;;;;;7.13;6.43;;;11.60;99.90;;;;;;5015798;28;21650;-65
2023/04/08 00:20:32;;;;;;;8.27;7.00;;;11.50;99.90;;;;;;5018250;28;20451;-65
2023/04/08 00:22:58;;;;;;;9.90;6.60;;;11.70;99.90;;;;;;5012141;28;20467;-65
2023/04/08 00:25:24;;;;;;;8.50;5.93;;;11.70;99.90;;;;;;5015281;28;20185;-65
2023/04/08 00:27:49;;;;;;;7.43;6.43;;;11.50;99.90;;;;;;5014439;28;20174;-65
2023/04/08 00:30:15;;;;;;;8.73;6.67;;;11.60;99.90;;;;;;5011477;28;20520;-65
2023/04/08 00:32:41;;;;;;;10.07;6.87;;;11.40;99.90;;;;;;5017262;28;20173;-64
2023/04/08 00:35:07;;;;;;;9.30;7.00;;;11.30;99.90;;;;;;5010669;28;20443;-65
2023/04/08 00:37:33;;;;;;;7.90;6.90;;;11.30;99.90;;;;;;5019071;28;20326;-65
2023/04/08 00:39:59;;;;;;;7.30;6.57;;;11.40;99.90;;;;;;5018255;28;20901;-65
2023/04/08 00:42:25;;;;;;;7.77;6.53;;;11.50;99.90;;;;;;5016153;28;20483;-65
2023/04/08 00:44:51;;;;;;;7.90;7.10;;;11.40;99.90;;;;;;5016020;28;20181;-65
2023/04/08 00:47:16;;;;;;;7.97;7.00;;;11.40;99.90;;;;;;5018979;28;20188;-65
2023/04/08 00:49:43;;;;;;;8.93;6.40;;;11.40;99.90;;;;;;5014806;28;20187;-65
2023/04/08 00:52:08;;;;;;;8.03;7.20;;;11.40;99.90;;;;;;5011122;28;20185;-65
2023/04/08 00:54:36;;;;;;;7.90;6.90;;;11.50;99.90;;;;;;5018089;28;20445;-65
2023/04/08 00:57:02;;;;;;;7.63;6.43;;;11.50;99.90;;;;;;5016078;28;20196;-66
2023/04/08 00:59:29;;;;;;;9.87;7.70;;;11.50;99.90;;;;;;5016743;28;20912;-65
2023/04/08 01:02:05;;;;;;;7.80;6.70;;;11.50;99.90;;;;;;5016598;28;20466;-66
2023/04/08 01:04:47;;;;;;;8.03;6.00;;;11.60;99.90;;;;;;5015073;28;20431;-65
2023/04/08 01:07:35;;;;;;;7.90;7.10;;;11.60;99.90;;;;;;5014903;28;20909;-65
2023/04/08 01:10:14;;;;;;;11.37;6.90;;;11.60;99.90;;;;;;5010405;28;20846;-65
2023/04/08 01:12:47;;;;;;;9.00;7.07;;;11.70;99.90;;;;;;5013185;28;20513;-65
2023/04/08 01:15:13;;;;;;;11.00;8.17;;;11.80;99.90;;;;;;5016446;28;20439;-65
2023/04/08 01:17:40;;;;;;;9.73;8.10;;;11.70;99.90;;;;;;5014753;28;20447;-65
2023/04/08 01:20:08;;;;;;;8.97;7.43;;;11.80;99.90;;;;;;5011543;28;20463;-65
2023/04/08 01:23:02;;;;;;;10.77;7.87;;;11.80;99.90;;;;;;5009726;28;20460;-65
2023/04/08 01:25:36;;;;;;;11.10;8.20;;;11.80;99.90;;;;;;5008966;28;20470;-65
2023/04/08 01:28:11;;;;;;;10.17;8.33;;;11.80;99.90;;;;;;5014212;28;20435;-65
2023/04/08 01:30:41;;;;;;;10.20;7.87;;;11.80;99.90;;;;;;5012210;28;20768;-65
2023/04/08 01:33:09;;;;;;;12.43;8.50;;;11.80;99.90;;;;;;5013011;28;20440;-65
2023/04/08 01:35:35;;;;;;;11.20;8.90;;;11.80;99.90;;;;;;5011963;28;21060;-65
2023/04/08 01:38:04;;;;;;;14.20;8.70;;;11.90;99.90;;;;;;5011699;28;20767;-65
2023/04/08 01:40:30;;;;;;;11.70;8.07;;;11.90;99.90;;;;;;5011498;28;20606;-66
2023/04/08 01:42:57;;;;;;;11.17;8.13;;;11.90;99.90;;;;;;5017450;28;20470;-65
2023/04/08 01:45:24;;;;;;;10.33;7.80;;;12.00;99.90;;;;;;5014262;28;20526;-65
2023/04/08 01:47:51;;;;;;;12.70;8.77;;;12.00;99.90;;;;;;5013560;28;20887;-65
2023/04/08 01:50:18;;;;;;;12.77;9.23;;;12.00;99.90;;;;;;5013341;28;20467;-65
2023/04/08 01:52:46;;;;;;;12.97;9.53;;;12.00;99.90;;;;;;5014225;28;20461;-66
2023/04/08 01:55:12;;;;;;;12.63;9.30;;;12.00;99.90;;;;;;5007988;28;21196;-66
2023/04/08 01:57:40;;;;;;;13.70;7.97;;;12.00;99.90;;;;;;5014980;28;20529;-65
2023/04/08 02:00:11;;;;;;;10.67;8.30;;;12.00;99.90;;;;;;5013548;28;20834;-65
2023/04/08 02:02:39;;;;;;;13.63;7.90;;;12.00;99.90;;;;;;5012806;28;20990;-65
2023/04/08 02:05:05;;;;;;;13.30;8.27;;;12.00;99.90;;;;;;5011729;28;21067;-64
2023/04/08 02:07:31;;;;;;;11.60;8.40;;;12.00;99.90;;;;;;5014156;28;20435;-65
2023/04/08 02:09:56;;;;;;;12.60;9.33;;;12.00;99.90;;;;;;5009552;28;20476;-65
2023/04/08 02:12:22;;;;;;;11.80;8.87;;;12.00;99.90;;;;;;5013915;28;20231;-65
2023/04/08 02:14:48;;;;;;;13.07;10.13;;;12.00;99.90;;;;;;5010911;28;20177;-65
2023/04/08 02:17:23;;;;;;;12.60;8.70;;;12.00;99.90;;;;;;5015692;28;20207;-65
2023/04/08 02:19:55;;;;;;;13.77;9.53;;;12.00;99.90;;;;;;5011392;28;20214;-65
2023/04/08 02:23:15;;;;;;;12.90;9.03;;;12.00;99.90;;;;;;5011830;28;20471;-65
2023/04/08 02:25:43;;;;;;;12.90;9.10;;;12.00;99.90;;;;;;4995253;28;20459;-65
2023/04/08 02:28:10;;;;;;;12.37;8.83;;;12.00;99.90;;;;;;5014178;28;20598;-65
2023/04/08 02:30:45;;;;;;;14.60;9.43;;;12.00;99.90;;;;;;5008699;28;20471;-65
2023/04/08 02:33:13;;;;;;;12.30;9.50;;;12.00;99.90;;;;;;5007071;28;20466;-65
2023/04/08 02:35:40;;;;;;;12.40;8.80;;;12.00;99.90;;;;;;5012184;28;20840;-65
2023/04/08 02:38:06;;;;;;;12.33;9.20;;;12.00;99.90;;;;;;5012522;28;20444;-65
2023/04/08 02:40:32;;;;;;;13.90;9.90;;;11.90;99.90;;;;;;5010729;28;21536;-65
2023/04/08 02:42:58;;;;;;;11.53;8.87;;;12.00;99.90;;;;;;5015125;28;20576;-65
2023/04/08 02:45:31;;;;;;;14.07;10.50;;;11.90;99.90;;;;;;5018545;28;20453;-65
2023/04/08 02:47:59;;;;;;;11.47;9.47;;;11.90;99.90;;;;;;5012257;28;20498;-65
2023/04/08 02:50:24;;;;;;;12.33;9.57;;;11.90;99.90;;;;;;5015509;28;20489;-65
2023/04/08 02:52:50;;;;;;;14.20;9.33;;;11.90;99.90;;;;;;5016186;28;20448;-65
2023/04/08 02:55:16;;;;;;;14.13;9.83;;;11.90;99.90;;;;;;5010766;28;20185;-65
2023/04/08 02:57:42;;;;;;;12.50;8.70;;;11.90;99.90;;;;;;5012252;28;20188;-65
2023/04/08 03:00:08;;;;;;;12.60;8.63;;;11.90;99.90;;;;;;5014457;28;20866;-65
2023/04/08 03:02:35;;;;;;;13.67;9.67;;;11.90;99.90;;;;;;5016025;28;20467;-65
2023/04/08 03:05:00;;;;;;;13.67;10.07;;;11.90;99.90;;;;;;5018909;28;20509;-65
2023/04/08 03:07:26;;;;;;;12.60;8.90;;;11.90;99.90;;;;;;5017699;28;20436;-65
2023/04/08 03:09:54;;;;;;;14.03;9.77;;;11.90;99.90;;;;;;5016033;28;20215;-65
2023/04/08 03:12:20;;;;;;;13.47;10.23;;;11.90;99.90;;;;;;5020767;28;20184;-65
2023/04/08 03:14:46;;;;;;;13.83;10.10;;;11.80;99.90;;;;;;5016527;28;20996;-65
2023/04/08 03:17:12;;;;;;;13.93;9.47;;;11.80;99.90;;;;;;5009897;28;20437;-65
2023/04/08 03:19:37;;;;;;;13.27;9.67;;;11.90;99.90;;;;;;5014082;28;21089;-65
2023/04/08 03:22:03;;;;;;;13.47;9.60;;;11.90;99.90;;;;;;5016973;28;20347;-65
2023/04/08 03:24:28;;;;;;;12.63;9.20;;;11.90;99.90;;;;;;5012178;28;20181;-65
2023/04/08 03:26:54;;;;;;;12.93;8.93;;;11.90;99.90;;;;;;5011122;28;20176;-65
2023/04/08 03:29:19;;;;;;;14.97;10.57;;;11.90;99.90;;;;;;5015748;28;20691;-65
2023/04/08 03:31:45;;;;;;;13.63;9.70;;;11.80;99.90;;;;;;5017688;28;20200;-65
2023/04/08 03:34:10;;;;;;;14.03;9.80;;;11.80;99.90;;;;;;5012243;28;20729;-65
2023/04/08 03:36:36;;;;;;;14.60;11.33;;;11.90;99.90;;;;;;5012336;28;21552;-65
2023/04/08 03:39:02;;;;;;;14.83;10.43;;;11.90;99.90;;;;;;5019637;28;20181;-65
2023/04/08 03:41:28;;;;;;;13.33;10.10;;;11.90;99.90;;;;;;5014169;28;20209;-66
2023/04/08 03:43:54;;;;;;;15.77;10.80;;;11.80;99.90;;;;;;5018917;28;20501;-65
2023/04/08 03:46:19;;;;;;;13.00;10.13;;;11.80;99.90;;;;;;5011409;28;20228;-66
2023/04/08 03:48:45;;;;;;;17.00;11.27;;;11.80;99.90;;;;;;5017388;28;20188;-65
2023/04/08 03:51:10;;;;;;;16.00;11.87;;;11.80;99.90;;;;;;5015522;28;20279;-65
2023/04/08 03:53:36;;;;;;;13.53;11.17;;;11.80;99.90;;;;;;5023408;28;20191;-65
2023/04/08 03:56:03;;;;;;;16.70;11.47;;;11.80;99.90;;;;;;5018231;28;20182;-65
2023/04/08 03:58:28;;;;;;;15.67;11.60;;;11.80;99.90;;;;;;5009673;28;20587;-65
2023/04/08 04:00:54;;;;;;;17.80;12.03;;;11.80;99.90;;;;;;5015064;28;20470;-65
2023/04/08 04:03:20;;;;;;;17.33;11.33;;;11.80;99.90;;;;;;5014645;28;20205;-65
2023/04/08 04:05:45;;;;;;;18.43;11.83;;;11.80;99.90;;;;;;5020123;28;20344;-65
2023/04/08 04:08:11;;;;;;;17.37;11.77;;;11.70;99.90;;;;;;5018878;28;20518;-65
2023/04/08 04:10:37;;;;;;;23.70;13.10;;;11.70;99.90;;;;;;5018765;28;20206;-65
2023/04/08 04:13:02;;;;;;;20.63;11.90;;;11.70;99.90;;;;;;5014928;28;20189;-65
2023/04/08 04:15:28;;;;;;;18.50;12.80;;;11.70;99.90;;;;;;5020298;28;20172;-65
2023/04/08 04:17:53;;;;;;;14.53;10.93;;;11.70;99.90;;;;;;5018107;28;20187;-65
2023/04/08 04:20:20;;;;;;;17.00;11.20;;;11.70;99.90;;;;;;5012600;28;20204;-65
2023/04/08 04:22:46;;;;;;;19.17;12.70;;;11.70;99.90;;;;;;5013630;28;20829;-65
2023/04/08 04:25:12;;;;;;;19.73;13.33;;;11.60;99.90;;;;;;5017188;28;20475;-65
2023/04/08 04:27:38;;;;;;;19.00;13.10;;;11.70;99.90;;;;;;5015343;28;20176;-66
2023/04/08 04:30:04;;;;;;;21.60;13.27;;;11.60;99.90;;;;;;5009890;28;20460;-65
2023/04/08 04:32:30;;;;;;;18.33;11.70;;;11.60;99.90;;;;;;5011034;28;20177;-65
2023/04/08 04:34:55;;;;;;;17.90;11.97;;;11.60;99.90;;;;;;5013853;28;20811;-65
2023/04/08 04:37:21;;;;;;;17.77;12.20;;;11.60;99.90;;;;;;5019293;28;20309;-65
2023/04/08 04:39:46;;;;;;;20.70;13.20;;;11.60;99.90;;;;;;5019697;28;20666;-65
2023/04/08 04:42:12;;;;;;;18.87;13.93;;;11.60;99.90;;;;;;5017949;28;20205;-65
2023/04/08 04:44:38;;;;;;;20.30;13.27;;;11.60;99.90;;;;;;5017520;28;20650;-65
2023/04/08 04:47:03;;;;;;;17.27;12.43;;;11.60;99.90;;;;;;5021636;28;20235;-66
2023/04/08 04:49:29;;;;;;;19.77;12.93;;;11.60;99.90;;;;;;5019218;28;20548;-65
2023/04/08 04:51:54;;;;;;;19.10;13.30;;;11.50;99.90;;;;;;5016327;28;20184;-66
2023/04/08 04:54:20;;;;;;;19.73;13.30;;;11.50;99.90;;;;;;5019828;28;20185;-65
2023/04/08 04:56:45;;;;;;;20.23;12.87;;;11.50;99.90;;;;;;5020139;28;20600;-65
2023/04/08 04:59:11;;;;;;;20.00;13.33;;;11.50;99.90;;;;;;5022615;28;20268;-65
2023/04/08 05:01:37;;;;;;;19.00;13.30;;;11.50;99.90;;;;;;5016668;28;20617;-65
2023/04/08 05:04:02;;;;;;;20.00;13.57;;;11.50;99.90;;;;;;5016343;28;20204;-65
2023/04/08 05:06:28;;;;;;;23.57;15.13;;;11.50;99.90;;;;;;5020916;28;20183;-65
2023/04/08 05:08:54;;;;;;;22.63;14.70;;;11.50;99.90;;;;;;5018385;28;20665;-65
2023/04/08 05:11:20;;;;;;;21.20;13.50;;;11.50;99.90;;;;;;5016289;28;20200;-66
2023/04/08 05:13:46;;;;;;;19.37;14.13;;;11.50;99.90;;;;;;5016292;28;20180;-66
2023/04/08 05:16:12;;;;;;;19.77;13.77;;;11.60;99.90;;;;;;5013129;28;20420;-65
2023/04/08 05:18:37;;;;;;;19.67;14.07;;;11.60;99.90;;;;;;5014596;28;20423;-65
2023/04/08 05:21:03;;;;;;;23.10;14.00;;;11.60;99.90;;;;;;5016643;28;20192;-65
2023/04/08 05:23:29;;;;;;;18.40;12.37;;;11.60;99.90;;;;;;5016530;28;20212;-65
2023/04/08 05:25:55;;;;;;;18.83;13.60;;;11.60;99.90;;;;;;5015851;28;20211;-66
2023/04/08 05:28:21;;;;;;;23.50;15.73;;;11.50;99.90;;;;;;5015695;28;20169;-65
2023/04/08 05:30:50;;;;;;;17.63;13.30;;;11.50;99.90;;;;;;5018852;28;20581;-65
2023/04/08 05:33:15;;;;;;;22.87;15.00;;;11.50;99.90;;;;;;5022807;28;20928;-65
2023/04/08 05:35:41;;;;;;;21.70;14.23;;;11.60;99.90;;;;;;5019050;28;20418;-66
2023/04/08 05:38:07;;;;;;;20.00;13.30;;;11.60;99.90;;;;;;5021258;28;20508;-65
2023/04/08 05:40:32;;;;;;;19.77;13.17;;;11.60;99.90;;;;;;5017981;28;20209;-65
2023/04/08 05:42:58;;;;;;;19.10;12.43;;;11.60;99.90;;;;;;5019233;28;20258;-65
2023/04/08 05:45:23;;;;;;;18.40;12.90;;;11.70;99.90;;;;;;5017062;28;20319;-66
2023/04/08 05:47:49;;;;;;;17.23;12.97;;;11.70;99.90;;;;;;5012741;28;20216;-65
2023/04/08 05:50:15;;;;;;;17.47;13.03;;;11.70;99.90;;;;;;5018236;28;20611;-65
2023/04/08 05:52:43;;;;;;;19.43;13.07;;;11.80;99.90;;;;;;5018507;28;20204;-66
2023/04/08 05:55:08;;;;;;;19.10;12.50;;;11.80;99.90;;;;;;5018324;28;20434;-65
2023/04/08 05:57:34;;;;;;;21.57;13.13;;;11.90;99.90;;;;;;5014829;28;20412;-65
2023/04/08 05:59:59;;;;;;;24.23;13.30;;;11.90;99.90;;;;;;5017768;28;20211;-65
2023/04/08 06:02:25;;;;;;;18.90;13.03;;;12.00;99.90;;;;;;5014568;28;20212;-65
2023/04/08 06:04:51;;;;;;;27.43;14.07;;;12.00;99.90;;;;;;5021023;28;20184;-65
2023/04/08 06:07:17;;;;;;;16.73;12.33;;;12.00;99.90;;;;;;5019498;28;20694;-65
2023/04/08 06:09:43;;;;;;;17.40;12.40;;;12.00;99.90;;;;;;5015418;28;20459;-65
2023/04/08 06:12:08;;;;;;;22.00;12.43;;;12.00;99.90;;;;;;5014037;28;20197;-65
2023/04/08 06:14:34;;;;;;;14.60;11.53;;;12.00;99.90;;;;;;5019263;28;20292;-65
2023/04/08 06:17:00;;;;;;;20.07;12.67;;;12.00;99.90;;;;;;5018031;28;20350;-65
2023/04/08 06:19:25;;;;;;;13.90;10.07;;;12.00;99.90;;;;;;5017932;28;20254;-66
2023/04/08 06:21:51;;;;;;;15.33;11.33;;;11.90;99.90;;;;;;5015966;28;20295;-66
2023/04/08 06:24:16;;;;;;;17.33;11.40;;;11.90;99.90;;;;;;5017799;28;20286;-65
2023/04/08 06:26:42;;;;;;;18.97;12.40;;;11.90;99.90;;;;;;5020375;28;20188;-65
2023/04/08 06:29:07;;;;;;;14.20;10.40;;;11.80;99.90;;;;;;5018219;28;20300;-65
2023/04/08 06:31:33;;;;;;;14.43;11.10;;;11.90;99.90;;;;;;5015893;28;20212;-66
2023/04/08 06:33:59;;;;;;;13.43;10.83;;;11.90;99.90;;;;;;5016331;28;20188;-66
2023/04/08 06:36:25;;;;;;;15.37;11.80;;;12.10;99.90;;;;;;5014352;28;20212;-67
2023/04/08 06:38:50;;;;;;;15.43;11.30;;;12.10;99.90;;;;;;5014542;28;20203;-65
2023/04/08 06:41:16;;;;;;;14.60;10.93;;;12.20;99.90;;;;;;5015217;28;20463;-65
2023/04/08 06:43:41;;;;;;;14.63;11.17;;;12.30;99.90;;;;;;5019335;28;20609;-65
2023/04/08 06:46:07;;;;;;;17.40;11.27;;;12.30;99.90;;;;;;5016667;28;20193;-66
2023/04/08 06:48:33;;;;;;;16.27;10.10;;;12.40;99.90;;;;;;5020509;28;20669;-66
2023/04/08 06:51:00;;;;;;;16.10;12.00;;;12.50;99.90;;;;;;5020905;28;20215;-66
2023/04/08 06:53:28;;;;;;;16.40;11.80;;;12.60;99.90;;;;;;5017813;28;20905;-66
2023/04/08 06:55:54;;;;;;;18.03;11.20;;;12.60;99.90;;;;;;5017842;28;20975;-66
2023/04/08 06:58:19;;;;;;;16.00;10.30;;;12.60;99.90;;;;;;5021787;28;20510;-65
2023/04/08 07:00:46;;;;;;;14.97;10.40;;;12.60;99.90;;;;;;5014316;28;20533;-66
2023/04/08 07:03:11;;;;;;;17.10;12.10;;;12.60;99.90;;;;;;5013693;28;20205;-65
2023/04/08 07:05:38;;;;;;;15.20;11.10;;;12.60;99.90;;;;;;5021627;28;20496;-66
2023/04/08 07:08:05;;;;;;;15.73;11.77;;;12.60;99.90;;;;;;5023498;28;20209;-66
2023/04/08 07:10:31;;;;;;;19.03;12.40;;;12.70;99.90;;;;;;5019285;28;20439;-66
2023/04/08 07:12:57;;;;;;;19.63;12.63;;;12.70;99.90;;;;;;5021178;28;20435;-66
2023/04/08 07:15:22;;;;;;;18.77;12.83;;;12.70;99.90;;;;;;5020945;28;20177;-66
2023/04/08 07:17:48;;;;;;;17.27;12.70;;;12.80;99.90;;;;;;5016852;28;20943;-66
2023/04/08 07:20:13;;;;;;;16.43;11.97;;;12.80;99.90;;;;;;5018642;28;20283;-65
2023/04/08 07:22:39;;;;;;;19.17;12.90;;;12.80;99.90;;;;;;5023106;28;20212;-66
2023/04/08 07:25:05;;;;;;;17.37;12.37;;;12.90;99.90;;;;;;5017176;28;20176;-66
2023/04/08 07:27:32;;;;;;;19.30;12.00;;;12.90;99.90;;;;;;5019095;28;20268;-66
2023/04/08 07:29:58;;;;;;;16.83;12.43;;;13.00;99.90;;;;;;5017648;28;20548;-66
2023/04/08 07:32:24;;;;;;;13.93;10.87;;;13.10;99.90;;;;;;5019998;28;20446;-66
2023/04/08 07:34:49;;;;;;;17.30;12.37;;;13.20;99.90;;;;;;5019096;28;20193;-66
2023/04/08 07:37:16;;;;;;;14.27;10.10;;;13.20;99.90;;;;;;5021962;28;20652;-66
2023/04/08 07:39:42;;;;;;;15.90;10.87;;;13.30;99.90;;;;;;5021596;28;20183;-66
2023/04/08 07:42:07;;;;;;;12.47;10.53;;;13.30;99.90;;;;;;5023416;28;20861;-65
2023/04/08 07:44:33;;;;;;;15.83;11.13;;;13.30;99.90;;;;;;5024291;28;20248;-66
2023/04/08 07:46:59;;;;;;;17.10;13.50;;;13.10;99.90;;;;;;5018279;28;20180;-66
2023/04/08 07:49:24;;;;;;;17.00;12.47;;;13.00;99.90;;;;;;5019241;28;20192;-66
2023/04/08 07:51:50;;;;;;;15.43;11.60;;;13.10;99.90;;;;;;5018787;28;20563;-65
2023/04/08 07:54:16;;;;;;;14.63;12.07;;;13.10;99.90;;;;;;5020882;28;20673;-66
2023/04/08 07:56:43;;;;;;;19.60;12.87;;;13.00;99.90;;;;;;5021266;28;20172;-66
2023/04/08 07:59:10;;;;;;;16.70;12.60;;;13.00;99.90;;;;;;5018708;28;20435;-66
2023/04/08 08:01:35;;;;;;;15.13;11.50;;;13.00;99.90;;;;;;5022766;28;20475;-65
2023/04/08 08:04:02;;;;;;;15.77;11.77;;;12.90;99.90;;;;;;5018276;28;20412;-66
2023/04/08 08:06:28;;;;;;;14.00;11.53;;;13.00;99.90;;;;;;5019060;28;20246;-66
2023/04/08 08:08:54;;;;;;;14.80;10.33;;;13.00;99.90;;;;;;5015418;28;20444;-66
2023/04/08 08:11:21;;;;;;;13.63;11.20;;;13.00;99.90;;;;;;5019745;28;20279;-65
2023/04/08 08:13:47;;;;;;;14.50;11.87;;;13.20;99.90;;;;;;5018323;28;20422;-65
2023/04/08 08:16:13;;;;;;;17.10;13.40;;;13.30;99.90;;;;;;5019329;28;20424;-66
2023/04/08 08:18:39;;;;;;;15.80;11.83;;;13.50;99.90;;;;;;5019392;28;20582;-66
2023/04/08 08:21:05;;;;;;;14.17;11.67;;;13.60;99.90;;;;;;5023571;28;20192;-65
2023/04/08 08:23:31;;;;;;;15.47;12.43;;;13.60;99.90;;;;;;5019482;28;20540;-66
2023/04/08 08:26:05;;;;;;;13.23;11.70;;;13.60;99.90;;;;;;5014893;28;20284;-66
2023/04/08 08:28:33;;;;;;;17.17;13.23;;;13.70;99.90;;;;;;5016214;28;20574;-66
2023/04/08 08:30:58;;;;;;;15.60;11.53;;;13.80;99.90;;;;;;5014899;28;20534;-66
2023/04/08 08:33:25;;;;;;;13.83;11.90;;;13.80;99.90;;;;;;5017569;28;20451;-66
2023/04/08 08:35:51;;;;;;;13.63;11.03;;;13.90;99.90;;;;;;5015657;28;20193;-66
2023/04/08 08:38:17;;;;;;;13.30;11.63;;;14.00;99.90;;;;;;5020484;28;20418;-66
2023/04/08 08:40:46;;;;;;;15.83;12.00;;;14.20;99.90;;;;;;5017715;28;20482;-66
2023/04/08 08:43:13;;;;;;;13.83;11.47;;;14.30;99.90;;;;;;5023075;28;20792;-66
2023/04/08 08:45:40;;;;;;;12.37;11.17;;;14.40;99.90;;;;;;5019248;28;20423;-66
2023/04/08 08:48:07;;;;;;;16.07;12.67;;;14.60;99.90;;;;;;5018427;28;20798;-66
2023/04/08 08:50:33;;;;;;;13.27;11.30;;;14.70;99.90;;;;;;5020043;28;20683;-66
2023/04/08 08:52:59;;;;;;;13.43;12.03;;;14.80;99.90;;;;;;5017798;28;20545;-66
2023/04/08 08:55:24;;;;;;;14.20;10.80;;;14.90;99.90;;;;;;5015430;28;20603;-66
2023/04/08 08:57:50;;;;;;;14.73;12.03;;;14.90;99.90;;;;;;5020045;28;20712;-66
2023/04/08 09:00:17;;;;;;;14.17;11.30;;;14.90;99.90;;;;;;5019123;28;20204;-66
2023/04/08 09:02:43;;;;;;;12.93;11.03;;;14.90;99.90;;;;;;5019292;28;20471;-66
2023/04/08 09:05:09;;;;;;;12.70;10.87;;;14.90;99.90;;;;;;5019304;28;20438;-66
2023/04/08 09:07:36;;;;;;;12.50;10.97;;;14.90;99.90;;;;;;5015547;28;20451;-66
2023/04/08 09:10:02;;;;;;;12.43;10.50;;;14.90;99.90;;;;;;5009721;28;20458;-66
2023/04/08 09:12:28;;;;;;;12.90;10.40;;;14.90;99.90;;;;;;5014474;28;20482;-66
2023/04/08 09:15:08;;;;;;;11.63;10.43;;;14.80;99.90;;;;;;5020542;28;20836;-66
2023/04/08 09:17:38;;;;;;;11.77;10.57;;;14.80;99.90;;;;;;5012919;28;20655;-66
2023/04/08 09:20:11;;;;;;;13.63;11.80;;;14.70;99.90;;;;;;5013759;28;20475;-66
2023/04/08 09:23:00;;;;;;;13.90;12.20;;;14.60;99.90;;;;;;5015595;28;21297;-66
2023/04/08 09:25:28;;;;;;;16.03;13.70;;;14.40;99.90;;;;;;5014336;28;20475;-65
2023/04/08 09:27:54;;;;;;;14.80;12.63;;;14.40;99.90;;;;;;5015946;28;20955;-66
2023/04/08 09:30:22;;;;;;;13.30;11.47;;;14.50;99.90;;;;;;5016172;28;20466;-66
2023/04/08 09:32:55;;;;;;;13.40;12.07;;;14.60;99.90;;;;;;5017429;28;20193;-66
2023/04/08 09:35:22;;;;;;;14.37;12.73;;;14.60;99.90;;;;;;5011168;28;20520;-66
2023/04/08 09:37:48;;;;;;;15.43;13.30;;;14.70;99.90;;;;;;5020477;28;20427;-66
2023/04/08 09:40:15;;;;;;;15.77;11.07;;;14.80;99.90;;;;;;5018607;28;20454;-66
2023/04/08 09:42:44;;;;;;;11.83;10.73;;;14.90;99.90;;;;;;5012086;28;20493;-66
2023/04/08 09:45:11;;;;;;;12.00;10.73;;;15.00;99.90;;;;;;5020890;28;22247;-66
2023/04/08 09:47:57;;;;;;;13.57;11.70;;;15.00;99.90;;;;;;5016443;28;20431;-66
2023/04/08 09:50:31;;;;;;;13.57;12.00;;;15.20;99.90;;;;;;5009833;28;20463;-66
2023/04/08 09:53:08;;;;;;;13.07;11.77;;;15.40;99.90;;;;;;5016685;28;20423;-66
2023/04/08 09:55:36;;;;;;;15.80;11.37;;;15.50;99.90;;;;;;5020241;28;20414;-66
2023/04/08 09:58:17;;;;;;;14.17;12.30;;;15.50;99.90;;;;;;5015673;28;20447;-65
2023/04/08 10:00:49;;;;;;;12.80;10.90;;;15.50;99.90;;;;;;5021706;28;20781;-66
2023/04/08 10:03:27;;;;;;;12.83;11.47;;;15.50;99.90;;;;;;5016847;28;20468;-66
2023/04/08 10:05:55;;;;;;;16.03;12.60;;;15.70;99.90;;;;;;5013429;28;20419;-66
2023/04/08 10:08:22;;;;;;;11.80;10.60;;;15.90;99.90;;;;;;5017213;28;20496;-66
2023/04/08 10:10:48;;;;;;;14.07;12.60;;;16.10;99.90;;;;;;5020962;28;20826;-66
2023/04/08 10:13:14;;;;;;;12.90;11.70;;;16.20;99.90;;;;;;5015753;28;20436;-66
2023/04/08 10:15:41;;;;;;;13.60;12.17;;;16.30;99.90;;;;;;5014649;28;20431;-66
2023/04/08 10:18:10;;;;;;;14.30;11.80;;;16.30;99.90;;;;;;5012506;28;20450;-66
2023/04/08 10:20:36;;;;;;;14.27;12.87;;;16.30;99.90;;;;;;5014434;28;20443;-66
2023/04/08 10:23:06;;;;;;;12.97;11.23;;;16.10;99.90;;;;;;5012840;28;20475;-66
2023/04/08 10:25:33;;;;;;;13.33;11.93;;;16.20;99.90;;;;;;5019590;28;20184;-66
2023/04/08 10:28:00;;;;;;;12.63;11.37;;;16.30;99.90;;;;;;5014661;28;20427;-66
2023/04/08 10:30:31;;;;;;;10.83;9.70;;;16.20;99.90;;;;;;5014766;28;20447;-66
2023/04/08 10:32:58;;;;;;;12.60;11.33;;;16.20;99.90;;;;;;5013731;28;20458;-66
2023/04/08 10:35:40;;;;;;;12.73;11.30;;;16.30;99.90;;;;;;5017566;28;21167;-66
2023/04/08 10:38:07;;;;;;;12.80;11.50;;;16.60;99.90;;;;;;5019717;28;20557;-66
2023/04/08 10:40:46;;;;;;;17.67;12.60;;;16.80;99.90;;;;;;5016249;28;20458;-66
2023/04/08 10:43:13;;;;;;;13.50;12.17;;;17.10;99.30;;;;;;5022096;28;20486;-66
2023/04/08 10:45:39;;;;;;;13.43;12.03;;;16.90;99.00;;;;;;5016889;28;20911;-66
2023/04/08 10:48:18;;;;;;;12.80;11.47;;;17.10;98.00;;;;;;5019137;28;20500;-64
2023/04/08 10:50:52;;;;;;;13.60;12.20;;;17.20;97.60;;;;;;5019939;28;20463;-66
2023/04/08 10:53:33;;;;;;;13.47;12.13;;;17.40;96.40;;;;;;5022054;28;20431;-66
2023/04/08 10:56:05;;;;;;;13.03;11.27;;;17.60;95.90;;;;;;5020628;28;20416;-66
2023/04/08 10:58:32;;;;;;;14.23;12.13;;;17.70;95.40;;;;;;5017305;28;21099;-66
2023/04/08 11:01:04;;;;;;;12.40;11.20;;;17.70;95.20;;;;;;5021682;28;20852;-66
2023/04/08 11:03:35;;;;;;;13.43;12.13;;;17.70;95.40;;;;;;5022444;28;20569;-66
2023/04/08 11:06:01;;;;;;;14.00;12.60;;;17.70;95.50;;;;;;5019034;28;20418;-66
2023/04/08 11:08:31;;;;;;;13.60;12.20;;;17.80;95.40;;;;;;5022694;28;20530;-66
2023/04/08 11:11:00;;;;;;;14.43;12.70;;;17.50;94.60;;;;;;5019312;28;20845;-64
2023/04/08 11:13:26;;;;;;;14.23;12.47;;;17.40;94.60;;;;;;5020609;28;20473;-64
2023/04/08 11:15:51;;;;;;;15.60;12.10;;;17.30;94.80;;;;;;5022499;28;20450;-64
2023/04/08 11:18:17;;;;;;;14.43;13.13;;;17.20;94.80;;;;;;5020020;28;21147;-67
2023/04/08 11:20:43;;;;;;;14.00;12.50;;;17.10;94.50;;;;;;5024923;28;20200;-67
2023/04/08 11:23:16;;;;;;;12.83;11.53;;;17.00;94.50;;;;;;5019192;28;20216;-67
2023/04/08 11:25:43;;;;;;;13.80;12.40;;;16.90;94.40;;;;;;5019105;28;20515;-64
2023/04/08 11:28:09;;;;;;;13.67;11.13;;;16.80;94.00;;;;;;5019906;28;20424;-65
2023/04/08 11:30:35;;;;;;;13.00;9.87;;;16.80;93.50;;;;;;5018248;28;20461;-64
2023/04/08 11:33:01;;;;;;;11.90;9.93;;;16.80;92.00;;;;;;5020684;28;20443;-65
2023/04/08 11:35:30;;;;;;;12.13;10.43;;;16.70;90.80;;;;;;5020848;28;20443;-65
2023/04/08 11:37:57;;;;;;;13.03;10.77;;;16.70;89.10;;;;;;5021064;28;20185;-66
2023/04/08 11:40:23;;;;;;;11.47;10.37;;;16.60;83.40;;;;;;5020540;28;20458;-66
2023/04/08 11:42:50;;;;;;;12.83;10.10;;;16.50;82.40;;;;;;5020307;28;20475;-64
2023/04/08 11:45:18;;;;;;;13.60;10.90;;;16.40;83.00;;;;;;5020757;28;22187;-67
2023/04/08 11:47:46;;;;;;;12.17;10.80;;;16.40;82.40;;;;;;5020046;28;20420;-65
2023/04/08 11:50:11;;;;;;;12.73;11.40;;;16.30;81.70;;;;;;5022090;28;20463;-65
2023/04/08 11:52:44;;;;;;;12.73;11.23;;;16.20;79.60;;;;;;5022270;28;20923;-65
2023/04/08 11:55:12;;;;;;;17.13;10.93;;;16.20;77.70;;;;;;5025360;28;20176;-65
2023/04/08 11:57:38;;;;;;;13.60;12.20;;;16.20;79.30;;;;;;5017772;28;20443;-65
2023/04/08 12:00:06;;;;;;;14.93;11.37;;;16.10;82.10;;;;;;5020098;28;20581;-66
2023/04/08 12:02:31;;;;;;;15.27;11.37;;;16.10;83.50;;;;;;5015109;28;20481;-65
2023/04/08 12:04:57;;;;;;;19.20;14.53;;;16.10;85.30;;;;;;5022311;28;20432;-66
2023/04/08 12:07:22;;;;;;;19.30;17.30;;;16.20;85.80;;;;;;5019506;28;20491;-65
2023/04/08 12:09:48;;;;;;;14.90;13.27;;;16.30;86.50;;;;;;5018289;28;20311;-65
2023/04/08 12:12:14;;;;;;;13.70;12.07;;;16.60;86.60;;;;;;5013876;28;20389;-66
2023/04/08 12:14:40;;;;;;;14.20;12.47;;;16.90;85.90;;;;;;5019221;28;20608;-66
2023/04/08 12:17:05;;;;;;;14.13;12.77;;;17.20;86.30;;;;;;5021320;28;20188;-66
2023/04/08 12:19:31;;;;;;;12.90;11.33;;;17.70;86.10;;;;;;5016900;28;20211;-65
2023/04/08 12:21:56;;;;;;;14.13;12.43;;;17.90;87.20;;;;;;5015917;28;20243;-65
2023/04/08 12:24:22;;;;;;;14.80;12.77;;;18.20;87.70;;;;;;5015341;28;20197;-65
2023/04/08 12:26:48;;;;;;;14.40;13.00;;;18.30;86.40;;;;;;5016968;28;20188;-64
2023/04/08 12:29:13;;;;;;;13.77;12.40;;;18.30;85.80;;;;;;5013725;28;20208;-64
2023/04/08 12:31:39;;;;;;;14.43;12.93;;;17.60;86.20;;;;;;5017268;28;20842;-65